sensor_id;sensor_type;location;lat;lon;timestamp;P1;durP1;ratioP1;P2;durP2;ratioP2
66870;SDS011;53780;44.998;9.926;2023-06-22T00:00:33;15.85;;;9.65;;
66870;SDS011;53780;44.998;9.926;2023-06-22T00:03:37;18.35;;;9.80;;
66870;SDS011;53780;44.998;9.926;2023-06-22T00:06:42;15.73;;;9.98;;
66870;SDS011;53780;44.998;9.926;2023-06-22T00:09:46;15.70;;;9.90;;
66870;SDS011;53780;44.998;9.926;2023-06-22T00:12:49;17.15;;;9.40;;
66870;SDS011;53780;44.998;9.926;2023-06-22T00:15:53;14.57;;;9.48;;
66870;SDS011;53780;44.998;9.926;2023-06-22T00:18:58;15.93;;;9.70;;
66870;SDS011;53780;44.998;9.926;2023-06-22T00:22:03;17.42;;;9.98;;
66870;SDS011;53780;44.998;9.926;2023-06-22T00:25:07;16.03;;;10.13;;
66870;SDS011;53780;44.998;9.926;2023-06-22T00:28:11;16.90;;;10.15;;
66870;SDS011;53780;44.998;9.926;2023-06-22T00:31:16;17.65;;;10.45;;
66870;SDS011;53780;44.998;9.926;2023-06-22T00:34:20;18.38;;;10.23;;
66870;SDS011;53780;44.998;9.926;2023-06-22T00:37:24;18.90;;;10.55;;
66870;SDS011;53780;44.998;9.926;2023-06-22T00:40:31;16.70;;;10.13;;
66870;SDS011;53780;44.998;9.926;2023-06-22T00:43:35;17.70;;;10.07;;
66870;SDS011;53780;44.998;9.926;2023-06-22T00:46:40;15.20;;;10.57;;
66870;SDS011;53780;44.998;9.926;2023-06-22T00:49:44;17.15;;;10.90;;
66870;SDS011;53780;44.998;9.926;2023-06-22T00:52:54;15.80;;;10.40;;
66870;SDS011;53780;44.998;9.926;2023-06-22T00:56:00;18.13;;;10.13;;
66870;SDS011;53780;44.998;9.926;2023-06-22T00:59:05;18.48;;;10.63;;
66870;SDS011;53780;44.998;9.926;2023-06-22T01:02:10;18.08;;;10.70;;
66870;SDS011;53780;44.998;9.926;2023-06-22T01:05:14;15.52;;;10.82;;
66870;SDS011;53780;44.998;9.926;2023-06-22T01:11:42;18.73;;;10.00;;
66870;SDS011;53780;44.998;9.926;2023-06-22T01:14:58;15.43;;;9.65;;
66870;SDS011;53780;44.998;9.926;2023-06-22T01:18:10;17.05;;;9.50;;
66870;SDS011;53780;44.998;9.926;2023-06-22T01:21:18;13.07;;;8.45;;
66870;SDS011;53780;44.998;9.926;2023-06-22T01:24:28;15.27;;;8.23;;
66870;SDS011;53780;44.998;9.926;2023-06-22T01:31:04;15.45;;;9.20;;
66870;SDS011;53780;44.998;9.926;2023-06-22T01:34:10;14.27;;;8.40;;
66870;SDS011;53780;44.998;9.926;2023-06-22T01:37:16;17.80;;;9.10;;
66870;SDS011;53780;44.998;9.926;2023-06-22T01:40:20;16.05;;;8.55;;
66870;SDS011;53780;44.998;9.926;2023-06-22T01:43:25;15.50;;;8.83;;
66870;SDS011;53780;44.998;9.926;2023-06-22T01:46:33;15.68;;;9.27;;
66870;SDS011;53780;44.998;9.926;2023-06-22T01:49:38;13.93;;;9.00;;
66870;SDS011;53780;44.998;9.926;2023-06-22T01:52:43;18.25;;;9.95;;
66870;SDS011;53780;44.998;9.926;2023-06-22T01:55:46;19.85;;;9.52;;
66870;SDS011;53780;44.998;9.926;2023-06-22T01:58:57;13.13;;;8.70;;
66870;SDS011;53780;44.998;9.926;2023-06-22T02:02:11;15.48;;;9.82;;
66870;SDS011;53780;44.998;9.926;2023-06-22T02:05:19;16.27;;;10.30;;
66870;SDS011;53780;44.998;9.926;2023-06-22T02:08:25;20.17;;;10.70;;
66870;SDS011;53780;44.998;9.926;2023-06-22T02:11:36;18.75;;;10.43;;
66870;SDS011;53780;44.998;9.926;2023-06-22T02:14:42;17.27;;;10.53;;
66870;SDS011;53780;44.998;9.926;2023-06-22T02:17:47;21.52;;;10.75;;
66870;SDS011;53780;44.998;9.926;2023-06-22T02:20:51;17.83;;;9.85;;
66870;SDS011;53780;44.998;9.926;2023-06-22T02:23:55;16.45;;;9.60;;
66870;SDS011;53780;44.998;9.926;2023-06-22T02:27:00;18.90;;;10.20;;
66870;SDS011;53780;44.998;9.926;2023-06-22T02:30:05;23.23;;;10.50;;
66870;SDS011;53780;44.998;9.926;2023-06-22T02:33:10;17.55;;;10.43;;
66870;SDS011;53780;44.998;9.926;2023-06-22T02:36:15;18.25;;;10.15;;
66870;SDS011;53780;44.998;9.926;2023-06-22T02:39:20;16.67;;;9.18;;
66870;SDS011;53780;44.998;9.926;2023-06-22T02:42:27;17.65;;;9.80;;
66870;SDS011;53780;44.998;9.926;2023-06-22T02:45:30;14.23;;;8.97;;
66870;SDS011;53780;44.998;9.926;2023-06-22T02:48:35;14.98;;;8.98;;
66870;SDS011;53780;44.998;9.926;2023-06-22T02:51:41;16.55;;;9.63;;
66870;SDS011;53780;44.998;9.926;2023-06-22T02:54:46;16.42;;;9.02;;
66870;SDS011;53780;44.998;9.926;2023-06-22T02:57:51;17.55;;;8.93;;
66870;SDS011;53780;44.998;9.926;2023-06-22T03:00:57;16.00;;;9.10;;
66870;SDS011;53780;44.998;9.926;2023-06-22T03:04:01;15.02;;;8.40;;
66870;SDS011;53780;44.998;9.926;2023-06-22T03:07:05;14.15;;;8.20;;
66870;SDS011;53780;44.998;9.926;2023-06-22T03:10:10;15.13;;;8.05;;
66870;SDS011;53780;44.998;9.926;2023-06-22T03:13:16;14.55;;;7.55;;
66870;SDS011;53780;44.998;9.926;2023-06-22T03:16:20;14.30;;;7.70;;
66870;SDS011;53780;44.998;9.926;2023-06-22T03:19:25;11.85;;;7.45;;
66870;SDS011;53780;44.998;9.926;2023-06-22T03:22:29;15.70;;;6.95;;
66870;SDS011;53780;44.998;9.926;2023-06-22T03:25:34;13.07;;;6.95;;
66870;SDS011;53780;44.998;9.926;2023-06-22T03:28:39;15.82;;;7.05;;
66870;SDS011;53780;44.998;9.926;2023-06-22T03:31:45;12.13;;;6.20;;
66870;SDS011;53780;44.998;9.926;2023-06-22T03:34:48;12.98;;;6.63;;
66870;SDS011;53780;44.998;9.926;2023-06-22T03:37:54;13.13;;;6.50;;
66870;SDS011;53780;44.998;9.926;2023-06-22T03:40:58;12.77;;;6.20;;
66870;SDS011;53780;44.998;9.926;2023-06-22T03:44:03;10.82;;;6.90;;
66870;SDS011;53780;44.998;9.926;2023-06-22T03:47:07;11.60;;;6.10;;
66870;SDS011;53780;44.998;9.926;2023-06-22T03:50:13;10.82;;;6.35;;
66870;SDS011;53780;44.998;9.926;2023-06-22T03:53:18;12.20;;;7.00;;
66870;SDS011;53780;44.998;9.926;2023-06-22T03:56:22;17.00;;;7.40;;
66870;SDS011;53780;44.998;9.926;2023-06-22T03:59:26;15.18;;;7.10;;
66870;SDS011;53780;44.998;9.926;2023-06-22T04:02:29;12.30;;;7.00;;
66870;SDS011;53780;44.998;9.926;2023-06-22T04:05:33;12.57;;;7.38;;
66870;SDS011;53780;44.998;9.926;2023-06-22T04:08:37;15.70;;;8.13;;
66870;SDS011;53780;44.998;9.926;2023-06-22T04:11:41;13.40;;;8.15;;
66870;SDS011;53780;44.998;9.926;2023-06-22T04:14:45;13.73;;;8.55;;
66870;SDS011;53780;44.998;9.926;2023-06-22T04:17:48;16.43;;;9.23;;
66870;SDS011;53780;44.998;9.926;2023-06-22T04:20:52;15.52;;;8.60;;
66870;SDS011;53780;44.998;9.926;2023-06-22T04:23:56;14.02;;;8.13;;
66870;SDS011;53780;44.998;9.926;2023-06-22T04:26:59;15.32;;;8.63;;
66870;SDS011;53780;44.998;9.926;2023-06-22T04:30:06;18.73;;;10.70;;
66870;SDS011;53780;44.998;9.926;2023-06-22T04:33:14;17.43;;;10.00;;
66870;SDS011;53780;44.998;9.926;2023-06-22T04:36:19;18.75;;;10.02;;
66870;SDS011;53780;44.998;9.926;2023-06-22T04:39:24;18.08;;;10.50;;
66870;SDS011;53780;44.998;9.926;2023-06-22T04:42:30;19.40;;;11.23;;
66870;SDS011;53780;44.998;9.926;2023-06-22T04:45:35;18.83;;;11.30;;
66870;SDS011;53780;44.998;9.926;2023-06-22T04:48:41;18.03;;;10.40;;
66870;SDS011;53780;44.998;9.926;2023-06-22T04:51:45;19.27;;;9.98;;
66870;SDS011;53780;44.998;9.926;2023-06-22T04:54:49;18.40;;;10.98;;
66870;SDS011;53780;44.998;9.926;2023-06-22T04:57:58;18.27;;;10.07;;
66870;SDS011;53780;44.998;9.926;2023-06-22T05:01:08;17.00;;;10.18;;
66870;SDS011;53780;44.998;9.926;2023-06-22T05:04:12;18.33;;;9.93;;
66870;SDS011;53780;44.998;9.926;2023-06-22T05:07:16;19.05;;;10.48;;
66870;SDS011;53780;44.998;9.926;2023-06-22T05:10:20;15.18;;;9.80;;
66870;SDS011;53780;44.998;9.926;2023-06-22T05:13:24;22.85;;;9.90;;
66870;SDS011;53780;44.998;9.926;2023-06-22T05:16:29;18.80;;;9.77;;
66870;SDS011;53780;44.998;9.926;2023-06-22T05:19:34;18.80;;;9.77;;
66870;SDS011;53780;44.998;9.926;2023-06-22T05:22:38;21.15;;;9.82;;
66870;SDS011;53780;44.998;9.926;2023-06-22T05:25:42;20.02;;;9.75;;
66870;SDS011;53780;44.998;9.926;2023-06-22T05:28:47;20.70;;;9.30;;
66870;SDS011;53780;44.998;9.926;2023-06-22T05:31:51;16.98;;;8.43;;
66870;SDS011;53780;44.998;9.926;2023-06-22T05:34:55;15.83;;;7.73;;
66870;SDS011;53780;44.998;9.926;2023-06-22T05:37:59;17.00;;;7.45;;
66870;SDS011;53780;44.998;9.926;2023-06-22T05:41:02;15.10;;;8.27;;
66870;SDS011;53780;44.998;9.926;2023-06-22T05:44:07;13.88;;;7.90;;
66870;SDS011;53780;44.998;9.926;2023-06-22T05:47:10;15.90;;;7.53;;
66870;SDS011;53780;44.998;9.926;2023-06-22T05:50:15;14.33;;;7.00;;
66870;SDS011;53780;44.998;9.926;2023-06-22T05:53:20;17.90;;;7.20;;
66870;SDS011;53780;44.998;9.926;2023-06-22T05:56:24;14.48;;;7.05;;
66870;SDS011;53780;44.998;9.926;2023-06-22T05:59:28;15.07;;;7.40;;
66870;SDS011;53780;44.998;9.926;2023-06-22T06:02:32;14.38;;;6.57;;
66870;SDS011;53780;44.998;9.926;2023-06-22T06:05:37;16.53;;;7.60;;
66870;SDS011;53780;44.998;9.926;2023-06-22T06:08:41;17.73;;;6.28;;
66870;SDS011;53780;44.998;9.926;2023-06-22T06:11:46;14.95;;;7.10;;
66870;SDS011;53780;44.998;9.926;2023-06-22T06:14:52;13.38;;;6.35;;
66870;SDS011;53780;44.998;9.926;2023-06-22T06:17:58;12.73;;;6.72;;
66870;SDS011;53780;44.998;9.926;2023-06-22T06:21:03;14.57;;;7.47;;
66870;SDS011;53780;44.998;9.926;2023-06-22T06:24:07;11.85;;;7.30;;
66870;SDS011;53780;44.998;9.926;2023-06-22T06:27:12;14.40;;;6.40;;
66870;SDS011;53780;44.998;9.926;2023-06-22T06:30:26;14.63;;;6.70;;
66870;SDS011;53780;44.998;9.926;2023-06-22T06:33:44;10.70;;;6.57;;
66870;SDS011;53780;44.998;9.926;2023-06-22T06:36:49;11.83;;;6.57;;
66870;SDS011;53780;44.998;9.926;2023-06-22T06:39:53;11.98;;;6.57;;
66870;SDS011;53780;44.998;9.926;2023-06-22T06:42:57;16.20;;;7.00;;
66870;SDS011;53780;44.998;9.926;2023-06-22T06:46:00;13.63;;;7.18;;
66870;SDS011;53780;44.998;9.926;2023-06-22T06:49:07;11.05;;;6.18;;
66870;SDS011;53780;44.998;9.926;2023-06-22T06:52:11;10.17;;;6.10;;
66870;SDS011;53780;44.998;9.926;2023-06-22T06:55:16;11.05;;;6.00;;
66870;SDS011;53780;44.998;9.926;2023-06-22T06:58:20;12.93;;;5.07;;
66870;SDS011;53780;44.998;9.926;2023-06-22T07:01:26;12.00;;;5.03;;
66870;SDS011;53780;44.998;9.926;2023-06-22T07:04:30;10.43;;;5.40;;
66870;SDS011;53780;44.998;9.926;2023-06-22T07:07:35;12.63;;;5.47;;
66870;SDS011;53780;44.998;9.926;2023-06-22T07:10:39;11.40;;;5.38;;
66870;SDS011;53780;44.998;9.926;2023-06-22T07:13:43;11.30;;;5.30;;
66870;SDS011;53780;44.998;9.926;2023-06-22T07:16:47;10.55;;;5.70;;
66870;SDS011;53780;44.998;9.926;2023-06-22T07:19:52;14.52;;;5.90;;
66870;SDS011;53780;44.998;9.926;2023-06-22T07:22:56;11.57;;;5.87;;
66870;SDS011;53780;44.998;9.926;2023-06-22T07:26:02;10.05;;;5.68;;
66870;SDS011;53780;44.998;9.926;2023-06-22T07:29:06;11.70;;;5.43;;
66870;SDS011;53780;44.998;9.926;2023-06-22T07:32:11;9.80;;;5.22;;
66870;SDS011;53780;44.998;9.926;2023-06-22T07:35:15;9.02;;;4.78;;
66870;SDS011;53780;44.998;9.926;2023-06-22T07:38:22;11.73;;;5.13;;
66870;SDS011;53780;44.998;9.926;2023-06-22T07:41:27;12.20;;;4.90;;
66870;SDS011;53780;44.998;9.926;2023-06-22T07:44:31;11.38;;;5.63;;
66870;SDS011;53780;44.998;9.926;2023-06-22T07:47:36;11.80;;;5.38;;
66870;SDS011;53780;44.998;9.926;2023-06-22T07:50:40;10.73;;;5.97;;
66870;SDS011;53780;44.998;9.926;2023-06-22T07:53:48;13.10;;;6.07;;
66870;SDS011;53780;44.998;9.926;2023-06-22T07:56:52;13.25;;;5.72;;
66870;SDS011;53780;44.998;9.926;2023-06-22T07:59:56;13.10;;;6.00;;
66870;SDS011;53780;44.998;9.926;2023-06-22T08:03:01;14.82;;;5.68;;
66870;SDS011;53780;44.998;9.926;2023-06-22T08:06:08;14.40;;;5.82;;
66870;SDS011;53780;44.998;9.926;2023-06-22T08:09:13;14.53;;;6.70;;
66870;SDS011;53780;44.998;9.926;2023-06-22T08:12:17;13.63;;;6.38;;
66870;SDS011;53780;44.998;9.926;2023-06-22T08:15:23;10.02;;;6.20;;
66870;SDS011;53780;44.998;9.926;2023-06-22T08:18:27;10.35;;;6.20;;
66870;SDS011;53780;44.998;9.926;2023-06-22T08:21:32;12.77;;;6.80;;
66870;SDS011;53780;44.998;9.926;2023-06-22T08:24:39;12.73;;;6.37;;
66870;SDS011;53780;44.998;9.926;2023-06-22T08:27:47;13.38;;;6.90;;
66870;SDS011;53780;44.998;9.926;2023-06-22T08:30:54;13.65;;;7.22;;
66870;SDS011;53780;44.998;9.926;2023-06-22T08:34:02;16.35;;;7.43;;
66870;SDS011;53780;44.998;9.926;2023-06-22T08:37:06;15.85;;;7.28;;
66870;SDS011;53780;44.998;9.926;2023-06-22T08:40:10;11.90;;;7.40;;
66870;SDS011;53780;44.998;9.926;2023-06-22T08:43:14;16.45;;;7.22;;
66870;SDS011;53780;44.998;9.926;2023-06-22T08:46:19;12.80;;;7.38;;
66870;SDS011;53780;44.998;9.926;2023-06-22T08:49:26;12.45;;;6.40;;
66870;SDS011;53780;44.998;9.926;2023-06-22T08:52:31;9.82;;;6.50;;
66870;SDS011;53780;44.998;9.926;2023-06-22T08:55:34;13.73;;;7.47;;
66870;SDS011;53780;44.998;9.926;2023-06-22T08:58:39;11.55;;;6.90;;
66870;SDS011;53780;44.998;9.926;2023-06-22T09:01:43;11.23;;;7.18;;
66870;SDS011;53780;44.998;9.926;2023-06-22T09:04:52;14.75;;;6.72;;
66870;SDS011;53780;44.998;9.926;2023-06-22T09:07:59;12.15;;;6.60;;
66870;SDS011;53780;44.998;9.926;2023-06-22T09:11:03;13.70;;;7.00;;
66870;SDS011;53780;44.998;9.926;2023-06-22T09:14:08;9.63;;;6.32;;
66870;SDS011;53780;44.998;9.926;2023-06-22T09:17:13;14.57;;;6.85;;
66870;SDS011;53780;44.998;9.926;2023-06-22T09:20:17;9.98;;;6.68;;
66870;SDS011;53780;44.998;9.926;2023-06-22T09:23:22;10.10;;;6.38;;
66870;SDS011;53780;44.998;9.926;2023-06-22T09:26:26;11.73;;;6.80;;
66870;SDS011;53780;44.998;9.926;2023-06-22T09:29:30;12.95;;;6.60;;
66870;SDS011;53780;44.998;9.926;2023-06-22T09:32:37;11.82;;;7.10;;
66870;SDS011;53780;44.998;9.926;2023-06-22T09:35:41;11.38;;;6.13;;
66870;SDS011;53780;44.998;9.926;2023-06-22T09:38:45;13.70;;;7.25;;
66870;SDS011;53780;44.998;9.926;2023-06-22T09:41:49;12.13;;;6.60;;
66870;SDS011;53780;44.998;9.926;2023-06-22T09:44:53;11.30;;;7.50;;
66870;SDS011;53780;44.998;9.926;2023-06-22T09:47:57;14.95;;;6.93;;
66870;SDS011;53780;44.998;9.926;2023-06-22T09:51:01;13.52;;;7.72;;
66870;SDS011;53780;44.998;9.926;2023-06-22T09:54:05;16.20;;;7.78;;
66870;SDS011;53780;44.998;9.926;2023-06-22T09:57:10;17.30;;;7.70;;
66870;SDS011;53780;44.998;9.926;2023-06-22T10:00:16;12.45;;;7.55;;
66870;SDS011;53780;44.998;9.926;2023-06-22T10:03:21;13.68;;;7.47;;
66870;SDS011;53780;44.998;9.926;2023-06-22T10:06:26;14.48;;;7.15;;
66870;SDS011;53780;44.998;9.926;2023-06-22T10:09:30;11.57;;;7.30;;
66870;SDS011;53780;44.998;9.926;2023-06-22T10:12:35;11.07;;;7.00;;
66870;SDS011;53780;44.998;9.926;2023-06-22T10:15:38;16.15;;;7.05;;
66870;SDS011;53780;44.998;9.926;2023-06-22T10:18:43;11.75;;;7.28;;
66870;SDS011;53780;44.998;9.926;2023-06-22T10:21:47;14.65;;;7.05;;
66870;SDS011;53780;44.998;9.926;2023-06-22T10:24:51;10.93;;;6.88;;
66870;SDS011;53780;44.998;9.926;2023-06-22T10:27:57;13.10;;;7.57;;
66870;SDS011;53780;44.998;9.926;2023-06-22T10:31:01;14.27;;;6.68;;
66870;SDS011;53780;44.998;9.926;2023-06-22T10:34:06;13.32;;;7.30;;
66870;SDS011;53780;44.998;9.926;2023-06-22T10:37:09;12.32;;;7.43;;
66870;SDS011;53780;44.998;9.926;2023-06-22T10:40:14;13.25;;;7.13;;
66870;SDS011;53780;44.998;9.926;2023-06-22T10:43:20;11.73;;;6.53;;
66870;SDS011;53780;44.998;9.926;2023-06-22T10:46:25;10.73;;;6.85;;
66870;SDS011;53780;44.998;9.926;2023-06-22T10:49:29;12.48;;;6.43;;
66870;SDS011;53780;44.998;9.926;2023-06-22T10:52:33;12.85;;;7.07;;
66870;SDS011;53780;44.998;9.926;2023-06-22T10:55:38;16.15;;;6.90;;
66870;SDS011;53780;44.998;9.926;2023-06-22T10:58:41;15.73;;;7.40;;
66870;SDS011;53780;44.998;9.926;2023-06-22T11:01:46;11.73;;;7.00;;
66870;SDS011;53780;44.998;9.926;2023-06-22T11:04:50;15.05;;;7.07;;
66870;SDS011;53780;44.998;9.926;2023-06-22T11:07:54;14.90;;;7.32;;
66870;SDS011;53780;44.998;9.926;2023-06-22T11:10:58;13.60;;;7.15;;
66870;SDS011;53780;44.998;9.926;2023-06-22T11:14:02;13.13;;;7.20;;
66870;SDS011;53780;44.998;9.926;2023-06-22T11:17:06;16.33;;;7.47;;
66870;SDS011;53780;44.998;9.926;2023-06-22T11:20:10;13.65;;;7.43;;
66870;SDS011;53780;44.998;9.926;2023-06-22T11:23:15;11.80;;;7.43;;
66870;SDS011;53780;44.998;9.926;2023-06-22T11:26:19;15.40;;;8.13;;
66870;SDS011;53780;44.998;9.926;2023-06-22T11:29:25;15.67;;;7.40;;
66870;SDS011;53780;44.998;9.926;2023-06-22T11:32:30;13.45;;;7.40;;
66870;SDS011;53780;44.998;9.926;2023-06-22T11:35:33;12.52;;;7.70;;
66870;SDS011;53780;44.998;9.926;2023-06-22T11:38:37;15.60;;;7.32;;
66870;SDS011;53780;44.998;9.926;2023-06-22T11:41:42;12.20;;;7.60;;
66870;SDS011;53780;44.998;9.926;2023-06-22T11:44:46;13.27;;;7.27;;
66870;SDS011;53780;44.998;9.926;2023-06-22T11:47:50;14.50;;;7.82;;
66870;SDS011;53780;44.998;9.926;2023-06-22T11:50:54;13.95;;;7.70;;
66870;SDS011;53780;44.998;9.926;2023-06-22T11:53:58;11.57;;;7.50;;
66870;SDS011;53780;44.998;9.926;2023-06-22T11:57:03;13.65;;;7.20;;
66870;SDS011;53780;44.998;9.926;2023-06-22T12:00:07;15.93;;;7.53;;
66870;SDS011;53780;44.998;9.926;2023-06-22T12:03:21;11.45;;;7.00;;
66870;SDS011;53780;44.998;9.926;2023-06-22T12:06:25;13.95;;;7.50;;
66870;SDS011;53780;44.998;9.926;2023-06-22T12:09:31;17.50;;;7.60;;
66870;SDS011;53780;44.998;9.926;2023-06-22T12:12:36;13.70;;;7.72;;
66870;SDS011;53780;44.998;9.926;2023-06-22T12:15:40;10.90;;;6.83;;
66870;SDS011;53780;44.998;9.926;2023-06-22T12:18:44;14.02;;;7.30;;
66870;SDS011;53780;44.998;9.926;2023-06-22T12:21:48;15.45;;;7.15;;
66870;SDS011;53780;44.998;9.926;2023-06-22T12:24:52;14.40;;;7.38;;
66870;SDS011;53780;44.998;9.926;2023-06-22T12:27:56;15.90;;;7.10;;
66870;SDS011;53780;44.998;9.926;2023-06-22T12:30:59;13.10;;;7.40;;
66870;SDS011;53780;44.998;9.926;2023-06-22T12:34:03;11.93;;;6.82;;
66870;SDS011;53780;44.998;9.926;2023-06-22T12:37:07;14.35;;;7.15;;
66870;SDS011;53780;44.998;9.926;2023-06-22T12:40:12;13.05;;;6.80;;
66870;SDS011;53780;44.998;9.926;2023-06-22T12:43:16;15.00;;;7.20;;
66870;SDS011;53780;44.998;9.926;2023-06-22T12:46:20;12.20;;;7.07;;
66870;SDS011;53780;44.998;9.926;2023-06-22T12:49:24;12.38;;;6.57;;
66870;SDS011;53780;44.998;9.926;2023-06-22T12:52:29;13.13;;;6.50;;
66870;SDS011;53780;44.998;9.926;2023-06-22T12:55:34;15.48;;;6.53;;
66870;SDS011;53780;44.998;9.926;2023-06-22T12:58:38;9.90;;;6.18;;
66870;SDS011;53780;44.998;9.926;2023-06-22T13:01:42;12.20;;;6.47;;
66870;SDS011;53780;44.998;9.926;2023-06-22T13:04:50;13.35;;;6.93;;
66870;SDS011;53780;44.998;9.926;2023-06-22T13:07:54;11.88;;;6.55;;
66870;SDS011;53780;44.998;9.926;2023-06-22T13:10:58;14.52;;;6.68;;
66870;SDS011;53780;44.998;9.926;2023-06-22T13:14:04;13.23;;;7.18;;
66870;SDS011;53780;44.998;9.926;2023-06-22T13:17:08;14.73;;;6.37;;
66870;SDS011;53780;44.998;9.926;2023-06-22T13:20:12;10.88;;;6.50;;
66870;SDS011;53780;44.998;9.926;2023-06-22T13:23:16;13.10;;;6.70;;
66870;SDS011;53780;44.998;9.926;2023-06-22T13:26:20;12.68;;;6.88;;
66870;SDS011;53780;44.998;9.926;2023-06-22T13:29:25;18.33;;;6.53;;
66870;SDS011;53780;44.998;9.926;2023-06-22T13:32:29;14.43;;;6.43;;
66870;SDS011;53780;44.998;9.926;2023-06-22T13:35:33;12.50;;;6.22;;
66870;SDS011;53780;44.998;9.926;2023-06-22T13:38:38;11.10;;;6.05;;
66870;SDS011;53780;44.998;9.926;2023-06-22T13:41:43;12.32;;;6.07;;
66870;SDS011;53780;44.998;9.926;2023-06-22T13:44:47;14.40;;;6.07;;
66870;SDS011;53780;44.998;9.926;2023-06-22T13:47:51;13.13;;;6.20;;
66870;SDS011;53780;44.998;9.926;2023-06-22T13:50:55;12.82;;;5.78;;
66870;SDS011;53780;44.998;9.926;2023-06-22T13:53:59;13.32;;;5.80;;
66870;SDS011;53780;44.998;9.926;2023-06-22T13:57:03;13.48;;;6.22;;
66870;SDS011;53780;44.998;9.926;2023-06-22T14:00:07;12.50;;;5.80;;
66870;SDS011;53780;44.998;9.926;2023-06-22T14:03:17;13.27;;;5.50;;
66870;SDS011;53780;44.998;9.926;2023-06-22T14:06:21;12.07;;;6.07;;
66870;SDS011;53780;44.998;9.926;2023-06-22T14:09:25;10.57;;;5.57;;
66870;SDS011;53780;44.998;9.926;2023-06-22T14:12:29;11.55;;;5.88;;
66870;SDS011;53780;44.998;9.926;2023-06-22T14:15:33;13.10;;;5.57;;
66870;SDS011;53780;44.998;9.926;2023-06-22T14:18:36;12.53;;;6.00;;
66870;SDS011;53780;44.998;9.926;2023-06-22T14:21:40;12.15;;;5.93;;
66870;SDS011;53780;44.998;9.926;2023-06-22T14:24:45;11.50;;;6.38;;
66870;SDS011;53780;44.998;9.926;2023-06-22T14:27:49;13.35;;;6.28;;
66870;SDS011;53780;44.998;9.926;2023-06-22T14:30:53;14.20;;;6.32;;
66870;SDS011;53780;44.998;9.926;2023-06-22T14:33:57;12.70;;;5.70;;
66870;SDS011;53780;44.998;9.926;2023-06-22T14:37:01;13.13;;;5.70;;
66870;SDS011;53780;44.998;9.926;2023-06-22T14:40:06;12.30;;;5.80;;
66870;SDS011;53780;44.998;9.926;2023-06-22T14:43:10;13.60;;;6.43;;
66870;SDS011;53780;44.998;9.926;2023-06-22T14:46:14;14.50;;;6.47;;
66870;SDS011;53780;44.998;9.926;2023-06-22T14:49:19;14.33;;;6.60;;
66870;SDS011;53780;44.998;9.926;2023-06-22T14:52:23;16.23;;;6.85;;
66870;SDS011;53780;44.998;9.926;2023-06-22T14:55:26;15.00;;;6.93;;
66870;SDS011;53780;44.998;9.926;2023-06-22T14:58:30;18.27;;;7.25;;
66870;SDS011;53780;44.998;9.926;2023-06-22T15:01:38;14.30;;;6.90;;
66870;SDS011;53780;44.998;9.926;2023-06-22T15:04:42;14.43;;;7.23;;
66870;SDS011;53780;44.998;9.926;2023-06-22T15:07:46;14.77;;;7.25;;
66870;SDS011;53780;44.998;9.926;2023-06-22T15:10:50;13.23;;;7.15;;
66870;SDS011;53780;44.998;9.926;2023-06-22T15:13:57;15.65;;;7.93;;
66870;SDS011;53780;44.998;9.926;2023-06-22T15:17:01;12.02;;;7.40;;
66870;SDS011;53780;44.998;9.926;2023-06-22T15:20:05;16.20;;;7.57;;
66870;SDS011;53780;44.998;9.926;2023-06-22T15:23:10;17.58;;;7.43;;
66870;SDS011;53780;44.998;9.926;2023-06-22T15:26:14;13.65;;;7.50;;
66870;SDS011;53780;44.998;9.926;2023-06-22T15:29:18;12.70;;;7.15;;
66870;SDS011;53780;44.998;9.926;2023-06-22T15:32:21;14.70;;;7.90;;
66870;SDS011;53780;44.998;9.926;2023-06-22T15:35:25;13.50;;;7.60;;
66870;SDS011;53780;44.998;9.926;2023-06-22T15:38:29;15.25;;;7.70;;
66870;SDS011;53780;44.998;9.926;2023-06-22T15:41:34;13.48;;;7.20;;
66870;SDS011;53780;44.998;9.926;2023-06-22T15:44:38;17.08;;;7.43;;
66870;SDS011;53780;44.998;9.926;2023-06-22T15:47:42;11.57;;;7.10;;
66870;SDS011;53780;44.998;9.926;2023-06-22T15:50:45;16.03;;;7.47;;
66870;SDS011;53780;44.998;9.926;2023-06-22T15:53:49;15.32;;;7.70;;
66870;SDS011;53780;44.998;9.926;2023-06-22T15:56:53;17.85;;;7.95;;
66870;SDS011;53780;44.998;9.926;2023-06-22T15:59:56;13.68;;;7.20;;
66870;SDS011;53780;44.998;9.926;2023-06-22T16:03:00;14.80;;;7.68;;
66870;SDS011;53780;44.998;9.926;2023-06-22T16:06:05;16.43;;;7.80;;
66870;SDS011;53780;44.998;9.926;2023-06-22T16:09:08;18.58;;;7.65;;
66870;SDS011;53780;44.998;9.926;2023-06-22T16:12:12;12.80;;;7.60;;
66870;SDS011;53780;44.998;9.926;2023-06-22T16:15:16;14.38;;;7.50;;
66870;SDS011;53780;44.998;9.926;2023-06-22T16:18:20;16.65;;;8.18;;
66870;SDS011;53780;44.998;9.926;2023-06-22T16:21:24;17.93;;;7.77;;
66870;SDS011;53780;44.998;9.926;2023-06-22T16:24:28;14.52;;;7.85;;
66870;SDS011;53780;44.998;9.926;2023-06-22T16:27:31;17.30;;;8.13;;
66870;SDS011;53780;44.998;9.926;2023-06-22T16:30:35;15.52;;;8.60;;
66870;SDS011;53780;44.998;9.926;2023-06-22T16:33:39;16.52;;;8.75;;
66870;SDS011;53780;44.998;9.926;2023-06-22T16:36:47;15.03;;;8.50;;
66870;SDS011;53780;44.998;9.926;2023-06-22T16:39:51;16.15;;;8.38;;
66870;SDS011;53780;44.998;9.926;2023-06-22T16:42:55;18.55;;;8.20;;
66870;SDS011;53780;44.998;9.926;2023-06-22T16:45:58;15.27;;;8.77;;
66870;SDS011;53780;44.998;9.926;2023-06-22T16:49:02;13.95;;;8.50;;
66870;SDS011;53780;44.998;9.926;2023-06-22T16:52:07;17.13;;;8.93;;
66870;SDS011;53780;44.998;9.926;2023-06-22T16:55:10;15.80;;;9.30;;
66870;SDS011;53780;44.998;9.926;2023-06-22T16:58:14;17.67;;;8.93;;
66870;SDS011;53780;44.998;9.926;2023-06-22T17:01:22;14.95;;;9.20;;
66870;SDS011;53780;44.998;9.926;2023-06-22T17:04:29;15.15;;;9.52;;
66870;SDS011;53780;44.998;9.926;2023-06-22T17:07:37;17.90;;;9.10;;
66870;SDS011;53780;44.998;9.926;2023-06-22T17:10:46;14.93;;;8.98;;
66870;SDS011;53780;44.998;9.926;2023-06-22T17:13:50;18.25;;;9.13;;
66870;SDS011;53780;44.998;9.926;2023-06-22T17:16:54;18.65;;;9.55;;
66870;SDS011;53780;44.998;9.926;2023-06-22T17:19:59;19.45;;;9.60;;
66870;SDS011;53780;44.998;9.926;2023-06-22T17:23:03;15.73;;;9.10;;
66870;SDS011;53780;44.998;9.926;2023-06-22T17:26:07;15.48;;;8.25;;
66870;SDS011;53780;44.998;9.926;2023-06-22T17:29:11;14.48;;;8.93;;
66870;SDS011;53780;44.998;9.926;2023-06-22T17:32:16;13.20;;;7.85;;
66870;SDS011;53780;44.998;9.926;2023-06-22T17:35:23;14.88;;;8.00;;
66870;SDS011;53780;44.998;9.926;2023-06-22T17:38:27;20.23;;;9.30;;
66870;SDS011;53780;44.998;9.926;2023-06-22T17:41:32;16.42;;;9.90;;
66870;SDS011;53780;44.998;9.926;2023-06-22T17:44:36;18.10;;;9.63;;
66870;SDS011;53780;44.998;9.926;2023-06-22T17:47:40;14.63;;;8.50;;
66870;SDS011;53780;44.998;9.926;2023-06-22T17:50:44;17.20;;;8.65;;
66870;SDS011;53780;44.998;9.926;2023-06-22T17:53:48;15.47;;;8.60;;
66870;SDS011;53780;44.998;9.926;2023-06-22T17:56:52;15.68;;;8.57;;
66870;SDS011;53780;44.998;9.926;2023-06-22T17:59:57;21.23;;;8.77;;
66870;SDS011;53780;44.998;9.926;2023-06-22T18:03:01;20.20;;;9.02;;
66870;SDS011;53780;44.998;9.926;2023-06-22T18:06:05;20.63;;;9.00;;
66870;SDS011;53780;44.998;9.926;2023-06-22T18:09:09;19.97;;;8.87;;
66870;SDS011;53780;44.998;9.926;2023-06-22T18:12:14;14.48;;;8.65;;
66870;SDS011;53780;44.998;9.926;2023-06-22T18:15:18;14.98;;;7.88;;
66870;SDS011;53780;44.998;9.926;2023-06-22T18:18:23;13.02;;;7.88;;
66870;SDS011;53780;44.998;9.926;2023-06-22T18:21:28;15.68;;;8.20;;